Aeroporto :
LOGIN :

Iscrizione | Disclaimer

   EN    FR    IT 

 










Sommario :    VFR   VFR Marginale   IFR   IFR Intensivo   IFR Molto Intensivo
Visibilità : 
Base nubi : 
>= 8 km
>= 3000ft
5 / 8 km
1000 / 3000 ft
1500m / 5 km
500 / 1000 ft
800 / 1500m
200 / 500 ft
< 800m
< 200 ft
Simboli :   Temporali  Nebbia  Neve Forte  Precipitazioni Forti  Vento > 20 kt
SIGMETs :   Varie  Temporali  Ghiacco  Turbolenza  Onda orograficha  Ceneri Vulcaniche






- Altitudine del aeroporto : 140 ft
- Codice IATA : NYO


ESKN - Skavsta

ULTIMO METAR :
  • 280020Z 14003KT 0400 R08/1600D R26/P2000N MIFG NSC 02/02 Q0998 R26/290195

METARs OBSOLETI :
  • 272350Z 19003KT 5000 BR BKN018 03/03 Q0999 R26/290195
  • 272320Z 23004KT 7000 FEW006 BKN021 03/03 Q0999 R26/290195
  • 272250Z 23006KT 9999 FEW009 SCT021 BKN036 04/04 Q0999 R26/290195
  • 272220Z 21005KT 9000 SCT007 BKN039 04/04 Q0999 R26/290195

TAF TAF ESKN
Valido dal 28 a 00 ore il 29 a 00 ore UTC


272330Z 2800/2824 17006KT 9999 BKN004
TEMPO 2800/2802 3000 RA BR SCT005 BKN025
TEMPO 2802/2824 2000 BR BKN006



MetMap, La meteo Aeronautica in un colpo d'occhio ! - Copyright ORBIFLY Dicembre 2007 - Disclaimer

ORBIFLY MET'MAP TEAM :

Programmazione e sviluppo : Alexandra Zaïnal
Concezione : Baudouin d'Aumeries
Aiuto per la programmazione : Marc-Olivier Méhu
Supporto tecnico e logistico : Manuel Goepfert
Aiuto per la traduzione : Arnaldo La Scala

Contatto : metmap@orbifly.com




FONTI E CREDITI :

   NOAA